This is the latest recevied weather packets stored in our database for station/object IZ2MHJ-3. If no packets are shown the sender has not sent any weather packets the latest 10 day(s).
| Time | Temp. | Humidity | Pressure | Rain* | Wind** | Luminosity | Snow |
|---|---|---|---|---|---|---|---|
| 1787797211 | 23.33° C | 76% | 1018.3 hPa | - | - | - | - |
| 1787796011 | 23.89° C | 75% | 1018.3 hPa | - | - | - | - |
| 1787794811 | 23.89° C | 76% | 1018.2 hPa | - | - | - | - |
| 1787793610 | 24.44° C | 77% | 1018.3 hPa | - | - | - | - |
| 1787792410 | 24.44° C | 75% | 1018.4 hPa | - | - | - | - |
| 1787791210 | 24.44° C | 75% | 1018.5 hPa | - | - | - | - |
| 1787790009 | 24.44° C | 77% | 1018.4 hPa | - | - | - | - |
| 1787788809 | 25° C | 74% | 1018.4 hPa | - | - | - | - |
| 1787787609 | 25° C | 75% | 1018.6 hPa | - | - | - | - |
| 1787786408 | 24.44° C | 76% | 1018.6 hPa | - | - | - | - |
| 1787785208 | 24.44° C | 75% | 1018.6 hPa | - | - | - | - |
| 1787784008 | 25° C | 75% | 1018.7 hPa | - | - | - | - |
| 1787782807 | 25.56° C | 73% | 1018.7 hPa | - | - | - | - |
| 1787781607 | 25.56° C | 72% | 1018.2 hPa | - | - | - | - |
| 1787780407 | 25.56° C | 73% | 1018.8 hPa | - | - | - | - |
| 1787779206 | 25.56° C | 73% | 1018.5 hPa | - | - | - | - |
| 1787778006 | 26.11° C | 72% | 1018.5 hPa | - | - | - | - |
| 1787776806 | 26.67° C | 70% | 1018.4 hPa | - | - | - | - |
| 1787775606 | 26.11° C | 72% | 1018.2 hPa | - | - | - | - |
| 1787774405 | 27.22° C | 68% | 1018.1 hPa | - | - | - | - |
| 1787773205 | 27.22° C | 70% | 1018.1 hPa | - | - | - | - |
| 1787772005 | 28.33° C | 65% | 1017.7 hPa | - | - | - | - |
| 1787770804 | 27.78° C | 66% | 1017.8 hPa | - | - | - | - |
| 1787769604 | 28.33° C | 62% | 1017.6 hPa | - | - | - | - |
| 1787768404 | 28.89° C | 62% | 1017.7 hPa | - | - | - | - |
* Rain since midnight (hover to see other rain measurements)
** Current wind speed in m/s (hover to see current wind gust speed)